createdAt,value
2023-01-25T00:05:00.934Z,103288.02
2023-01-25T00:10:07.094Z,103281.20
2023-01-25T00:15:13.165Z,103284.61
2023-01-25T00:20:19.056Z,103278.61
2023-01-25T00:25:25.299Z,103276.51
2023-01-25T00:30:30.758Z,103269.91
2023-01-25T00:35:36.482Z,103256.77
2023-01-25T00:40:41.855Z,103263.25
2023-01-25T00:45:47.359Z,103252.76
2023-01-25T00:50:52.849Z,103250.83
2023-01-25T00:55:58.328Z,103249.69
2023-01-25T01:01:04.071Z,103246.45
2023-01-25T01:06:13.089Z,103240.70
2023-01-25T01:11:18.675Z,103243.89
2023-01-25T01:16:24.464Z,103241.66
2023-01-25T01:21:30.220Z,103236.43
2023-01-25T01:26:35.730Z,103230.27
2023-01-25T01:31:41.203Z,103226.19
2023-01-25T01:37:05.914Z,103222.48
2023-01-25T01:42:12.232Z,103223.36
2023-01-25T01:47:40.742Z,103213.26
2023-01-25T01:52:47.859Z,103215.02
2023-01-25T01:57:58.164Z,103214.59
2023-01-25T02:03:04.464Z,103206.95
2023-01-25T02:08:13.190Z,103192.98
2023-01-25T02:13:20.972Z,103193.59
2023-01-25T02:18:27.297Z,103184.98
2023-01-25T02:23:52.482Z,103184.77
2023-01-25T02:29:03.660Z,103180.23
2023-01-25T02:34:09.522Z,103179.00
2023-01-25T02:39:20.781Z,103184.30
2023-01-25T02:44:31.689Z,103178.56
2023-01-25T02:49:39.060Z,103170.73
2023-01-25T02:54:45.878Z,103163.48
2023-01-25T02:59:51.495Z,103166.02
2023-01-25T03:04:57.138Z,103160.42
2023-01-25T03:10:02.987Z,103145.36
2023-01-25T03:15:10.547Z,103135.61
2023-01-25T03:20:16.561Z,103122.39
2023-01-25T03:25:22.398Z,103138.41
2023-01-25T03:30:35.432Z,103134.45
2023-01-25T03:35:41.007Z,103120.84
2023-01-25T03:40:46.779Z,103107.63
2023-01-25T03:45:57.231Z,103098.86
2023-01-25T03:51:02.862Z,103096.92
2023-01-25T03:56:14.758Z,103082.94
2023-01-25T04:01:22.109Z,103073.98
2023-01-25T04:06:27.923Z,103068.09
2023-01-25T04:11:33.709Z,103056.11
2023-01-25T04:16:39.485Z,103057.19
2023-01-25T04:21:49.331Z,103042.29
2023-01-25T04:26:55.413Z,103045.48
2023-01-25T04:32:01.929Z,103042.34
2023-01-25T04:37:08.019Z,103037.34
2023-01-25T04:42:15.186Z,103025.16
2023-01-25T04:47:22.380Z,103026.08
2023-01-25T04:52:27.759Z,103021.20
2023-01-25T04:57:33.208Z,103008.38
2023-01-25T05:02:39.888Z,103005.62
2023-01-25T05:07:45.749Z,103001.66
2023-01-25T05:12:51.464Z,102994.61
2023-01-25T05:17:56.985Z,102987.67
2023-01-25T05:23:02.908Z,102982.40
2023-01-25T05:28:09.195Z,102971.20
2023-01-25T05:33:31.433Z,102972.19
2023-01-25T05:38:37.174Z,102970.44
2023-01-25T05:43:43.191Z,102967.38
2023-01-25T05:48:49.588Z,102978.84
2023-01-25T05:53:58.315Z,102983.17
2023-01-25T05:59:04.065Z,102980.81
2023-01-25T06:04:10.935Z,102965.92
2023-01-25T06:09:16.622Z,102963.81
2023-01-25T06:14:24.027Z,102963.06
2023-01-25T06:19:30.741Z,102956.50
2023-01-25T06:24:47.037Z,102967.27
2023-01-25T06:29:52.415Z,102956.95
2023-01-25T06:34:57.858Z,102955.61
2023-01-25T06:40:03.512Z,102943.91
2023-01-25T06:45:10.407Z,102947.67
2023-01-25T06:50:16.751Z,102943.34
2023-01-25T06:55:23.265Z,102944.80
2023-01-25T07:00:28.786Z,102946.02
2023-01-25T07:05:34.704Z,102937.73
2023-01-25T07:10:40.287Z,102924.49
2023-01-25T07:15:45.700Z,102926.50
2023-01-25T07:20:51.545Z,102913.05
2023-01-25T07:25:58.280Z,102913.03
2023-01-25T07:31:10.230Z,102908.20
2023-01-25T07:36:15.927Z,102907.28
2023-01-25T07:41:21.728Z,102893.87
2023-01-25T07:46:29.146Z,102892.83
2023-01-25T07:51:34.886Z,102894.48
2023-01-25T07:56:40.976Z,102895.47
2023-01-25T08:01:46.614Z,102876.13
2023-01-25T08:06:52.098Z,102870.41
2023-01-25T08:11:57.476Z,102868.70
2023-01-25T08:17:02.997Z,102867.61
2023-01-25T08:22:10.086Z,102870.20
2023-01-25T08:27:15.529Z,102870.27
2023-01-25T08:32:21.022Z,102865.66
2023-01-25T08:37:28.060Z,102861.19
2023-01-25T08:42:33.508Z,102860.06
2023-01-25T08:47:39.059Z,102858.67
2023-01-25T08:52:44.501Z,102859.63
2023-01-25T08:57:50.024Z,102856.92
2023-01-25T09:02:55.479Z,102857.05
2023-01-25T09:08:01.006Z,102865.84
2023-01-25T09:13:08.657Z,102869.84
2023-01-25T09:18:14.881Z,102862.75
2023-01-25T09:23:21.894Z,102857.47
2023-01-25T09:28:30.071Z,102857.21
2023-01-25T09:33:37.649Z,102856.98
2023-01-25T09:38:43.042Z,102842.91
2023-01-25T09:44:14.591Z,102838.33
2023-01-25T09:49:26.149Z,102827.23
2023-01-25T09:54:42.336Z,102817.70
2023-01-25T09:59:44.022Z,102818.16
2023-01-25T10:04:52.501Z,102813.66
2023-01-25T10:10:07.419Z,102800.95
2023-01-25T10:15:24.683Z,102792.70
2023-01-25T10:20:35.883Z,102791.48
2023-01-25T10:25:44.303Z,102776.80
2023-01-25T10:31:04.996Z,102770.61
2023-01-25T10:36:19.053Z,102772.42
2023-01-25T10:41:30.302Z,102757.56
2023-01-25T10:46:36.812Z,102741.69
2023-01-25T10:51:42.293Z,102732.04
2023-01-25T10:56:48.951Z,102727.69
2023-01-25T11:01:54.769Z,102713.95
2023-01-25T11:07:02.613Z,102713.11
2023-01-25T11:12:20.509Z,102697.22
2023-01-25T11:17:30.657Z,102699.05
2023-01-25T11:22:36.415Z,102687.77
2023-01-25T11:27:41.900Z,102682.07
2023-01-25T11:32:47.429Z,102674.59
2023-01-25T11:38:04.969Z,102672.98
2023-01-25T11:43:38.535Z,102666.44
2023-01-25T11:48:53.573Z,102660.84
2023-01-25T11:54:02.449Z,102659.50
2023-01-25T11:59:38.130Z,102643.18
2023-01-25T12:05:16.264Z,102641.36
2023-01-25T12:10:23.721Z,102630.98
2023-01-25T12:15:38.154Z,102611.66
2023-01-25T12:21:08.479Z,102607.23
2023-01-25T12:26:32.024Z,102598.57
2023-01-25T12:31:40.541Z,102583.19
2023-01-25T12:36:49.237Z,102583.50
2023-01-25T12:42:12.651Z,102562.88
2023-01-25T12:47:39.245Z,102547.45
2023-01-25T12:53:05.640Z,102544.28
2023-01-25T12:58:18.264Z,102532.06
2023-01-25T13:03:58.695Z,102527.61
2023-01-25T13:09:20.466Z,102517.52
2023-01-25T13:14:40.829Z,102509.25
2023-01-25T13:19:46.351Z,102504.75
2023-01-25T13:25:07.718Z,102496.84
2023-01-25T13:30:34.840Z,102486.72
2023-01-25T13:35:45.161Z,102474.37
2023-01-25T13:41:07.306Z,102471.73
2023-01-25T13:46:15.725Z,102456.75
2023-01-25T13:51:21.833Z,102447.11
2023-01-25T13:56:30.917Z,102451.14
2023-01-25T14:01:38.025Z,102450.71
2023-01-25T14:06:44.103Z,102425.23
2023-01-25T14:11:58.709Z,102426.95
2023-01-25T14:17:16.354Z,102426.50
2023-01-25T14:22:27.195Z,102411.05
2023-01-25T14:27:32.790Z,102407.95
2023-01-25T14:32:38.363Z,102400.92
2023-01-25T14:37:44.441Z,102393.02
2023-01-25T14:42:51.261Z,102392.55
2023-01-25T14:47:59.466Z,102371.89
2023-01-25T14:53:18.843Z,102364.39
2023-01-25T14:58:28.013Z,102355.55
2023-01-25T15:03:33.713Z,102344.56
2023-01-25T15:08:40.923Z,102345.03
2023-01-25T15:13:46.957Z,102334.91
2023-01-25T15:18:57.549Z,102330.53
2023-01-25T15:24:07.141Z,102323.48
2023-01-25T15:29:19.743Z,102322.59
2023-01-25T15:34:32.807Z,102325.64
2023-01-25T15:39:39.064Z,102312.00
2023-01-25T15:44:44.554Z,102312.06
2023-01-25T15:49:50.021Z,102316.88
2023-01-25T15:55:01.395Z,102308.98
2023-01-25T16:00:03.393Z,102306.33
2023-01-25T16:05:09.659Z,102304.11
2023-01-25T16:10:24.425Z,102297.95
2023-01-25T16:15:29.970Z,102292.68
2023-01-25T16:20:35.524Z,102285.66
2023-01-25T16:25:43.520Z,102283.87
2023-01-25T16:30:50.103Z,102284.32
2023-01-25T16:36:07.322Z,102274.20
2023-01-25T16:41:14.151Z,102272.88
2023-01-25T16:46:24.505Z,102257.48
2023-01-25T16:51:30.581Z,102264.52
2023-01-25T16:56:36.122Z,102246.94
2023-01-25T17:01:42.114Z,102238.12
2023-01-25T17:06:50.798Z,102242.08
2023-01-25T17:11:56.636Z,102233.72
2023-01-25T17:17:02.310Z,102223.17
2023-01-25T17:22:07.835Z,102208.63
2023-01-25T17:27:15.010Z,102211.27
2023-01-25T17:32:20.475Z,102193.69
2023-01-25T17:37:26.022Z,102191.05
2023-01-25T17:42:31.472Z,102191.03
2023-01-25T17:47:36.867Z,102177.41
2023-01-25T17:52:42.323Z,102176.98
2023-01-25T17:57:47.957Z,102159.83
2023-01-25T18:02:54.892Z,102156.33
2023-01-25T18:08:00.407Z,102164.24
2023-01-25T18:13:05.794Z,102162.48
2023-01-25T18:18:11.197Z,102142.23
2023-01-25T18:23:16.709Z,102153.67
2023-01-25T18:28:22.180Z,102158.95
2023-01-25T18:33:28.273Z,102144.88
2023-01-25T18:38:34.001Z,102142.23
2023-01-25T18:43:39.505Z,102136.09
2023-01-25T18:48:46.611Z,102131.22
2023-01-25T18:53:52.284Z,102120.24
2023-01-25T18:58:58.463Z,102118.47
2023-01-25T19:04:04.007Z,102113.22
2023-01-25T19:09:09.556Z,102110.59
2023-01-25T19:14:14.945Z,102104.41
2023-01-25T19:19:22.070Z,102096.52
2023-01-25T19:24:28.113Z,102103.55
2023-01-25T19:29:33.695Z,102090.82
2023-01-25T19:34:40.129Z,102079.83
2023-01-25T19:39:45.794Z,102074.53
2023-01-25T19:44:51.414Z,102072.79
2023-01-25T19:49:57.149Z,102057.41
2023-01-25T19:55:02.717Z,102051.22
2023-01-25T20:00:09.453Z,102060.02
2023-01-25T20:05:14.995Z,102046.41
2023-01-25T20:10:20.533Z,102038.94
2023-01-25T20:15:26.072Z,102047.28
2023-01-25T20:20:31.645Z,102035.01
2023-01-25T20:25:37.374Z,102034.55
2023-01-25T20:30:42.984Z,102027.53
2023-01-25T20:35:50.254Z,102020.92
2023-01-25T20:41:01.286Z,102029.27
2023-01-25T20:46:06.981Z,102022.69
2023-01-25T20:51:14.602Z,102014.36
2023-01-25T20:56:20.545Z,102005.11
2023-01-25T21:01:32.882Z,101994.59
2023-01-25T21:06:38.914Z,101989.30
2023-01-25T21:11:44.580Z,101987.10
2023-01-25T21:16:50.215Z,101987.05
2023-01-25T21:21:55.712Z,101995.87
2023-01-25T21:27:01.239Z,101981.39
2023-01-25T21:32:07.227Z,101990.61
2023-01-25T21:37:12.843Z,101991.06
2023-01-25T21:42:18.316Z,101984.05
2023-01-25T21:47:30.458Z,101984.91
2023-01-25T21:52:31.092Z,101976.55
2023-01-25T21:57:36.695Z,101981.84
2023-01-25T22:02:42.463Z,101986.67
2023-01-25T22:07:48.261Z,101985.78
2023-01-25T22:12:53.747Z,101980.51
2023-01-25T22:17:59.156Z,101980.53
2023-01-25T22:23:04.626Z,101975.23
2023-01-25T22:28:13.148Z,101972.59
2023-01-25T22:33:20.339Z,101970.84
2023-01-25T22:38:25.774Z,101956.83
2023-01-25T22:43:31.599Z,101962.09
2023-01-25T22:48:37.599Z,101966.05
2023-01-25T22:53:43.588Z,101959.87
2023-01-25T22:58:50.068Z,101954.61
2023-01-25T23:03:57.061Z,101945.41
2023-01-25T23:09:05.369Z,101947.15
2023-01-25T23:14:31.087Z,101941.38
2023-01-25T23:19:36.550Z,101940.06
2023-01-25T23:24:43.436Z,101936.14
2023-01-25T23:29:50.075Z,101925.63
2023-01-25T23:34:55.605Z,101922.56
2023-01-25T23:40:00.997Z,101922.13
2023-01-25T23:45:08.563Z,101917.72
2023-01-25T23:50:14.193Z,101909.40
2023-01-25T23:55:19.573Z,101894.47
